Time;durP1;ratioP1;P1;durP2;ratioP2;P2;SDS_P1;SDS_P2;PMS_P1;PMS_P2;Temp;Humidity;BMP_temperature;BMP_pressure;BME280_temperature;BME280_humidity;BME280_pressure;Samples;Min_cycle;Max_cycle;Signal;HPM_P1;HPM_P2
2021/06/25 00:00:25;;;;;;;4.00;2.60;;;;;;;;;;1480271;40;20032;-62
2021/06/25 00:01:27;;;;;;;4.63;2.42;;;;;;;;;;1480211;40;20036;-62
2021/06/25 00:02:30;;;;;;;4.32;2.25;;;;;;;;;;1480177;40;20037;-61
2021/06/25 00:03:32;;;;;;;5.05;2.78;;;;;;;;;;1480194;40;20034;-62
2021/06/25 00:04:32;;;;;;;3.60;2.60;;;;;;;;;;1480136;40;20034;-62
2021/06/25 00:05:35;;;;;;;4.75;2.70;;;;;;;;;;1480176;40;20037;-62
2021/06/25 00:06:35;;;;;;;5.47;2.50;;;;;;;;;;1480300;40;20029;-62
2021/06/25 00:07:38;;;;;;;3.58;2.80;;;;;;;;;;1480226;40;20114;-62
2021/06/25 00:08:39;;;;;;;5.47;2.88;;;;;;;;;;1480112;40;20025;-62
2021/06/25 00:09:41;;;;;;;5.15;3.10;;;;;;;;;;1480173;40;20033;-62
2021/06/25 00:10:43;;;;;;;4.40;2.90;;;;;;;;;;1480304;40;20053;-62
2021/06/25 00:11:45;;;;;;;4.45;2.65;;;;;;;;;;1480200;40;20408;-62
2021/06/25 00:12:46;;;;;;;5.25;3.03;;;;;;;;;;1480370;40;20029;-62
2021/06/25 00:13:48;;;;;;;4.60;2.83;;;;;;;;;;1480184;40;20400;-62
2021/06/25 00:14:49;;;;;;;3.80;2.72;;;;;;;;;;1480151;40;20284;-62
2021/06/25 00:15:51;;;;;;;4.65;3.15;;;;;;;;;;1480190;40;20033;-62
2021/06/25 00:16:52;;;;;;;6.25;3.20;;;;;;;;;;1480157;40;20029;-62
2021/06/25 00:17:57;;;;;;;6.38;3.20;;;;;;;;;;1480324;40;20037;-62
2021/06/25 00:18:58;;;;;;;7.35;3.53;;;;;;;;;;1480068;40;20078;-62
2021/06/25 00:20:00;;;;;;;4.78;3.42;;;;;;;;;;1480259;40;20045;-62
2021/06/25 00:21:03;;;;;;;4.65;3.00;;;;;;;;;;1480240;40;20151;-62
2021/06/25 00:22:05;;;;;;;5.65;3.47;;;;;;;;;;1480149;40;20029;-62
2021/06/25 00:23:06;;;;;;;4.57;3.40;;;;;;;;;;1480182;40;20026;-62
2021/06/25 00:24:08;;;;;;;4.75;3.17;;;;;;;;;;1480336;40;20368;-61
2021/06/25 00:25:10;;;;;;;6.07;3.47;;;;;;;;;;1480257;40;20033;-61
2021/06/25 00:26:13;;;;;;;5.60;3.47;;;;;;;;;;1480052;40;20070;-62
2021/06/25 00:27:14;;;;;;;6.13;3.42;;;;;;;;;;1480261;40;20033;-62
2021/06/25 00:28:16;;;;;;;4.88;3.50;;;;;;;;;;1480387;40;20292;-62
2021/06/25 00:29:18;;;;;;;7.53;3.45;;;;;;;;;;1480971;40;20025;-62
2021/06/25 00:30:20;;;;;;;4.18;3.17;;;;;;;;;;1480817;40;20029;-62
2021/06/25 00:31:21;;;;;;;4.57;3.40;;;;;;;;;;1480872;40;20044;-62
2021/06/25 00:32:23;;;;;;;4.70;3.28;;;;;;;;;;1480772;40;20040;-62
2021/06/25 00:33:24;;;;;;;6.10;3.72;;;;;;;;;;1480687;40;20029;-62
2021/06/25 00:34:26;;;;;;;5.22;3.20;;;;;;;;;;1480755;40;20025;-62
2021/06/25 00:35:28;;;;;;;5.03;3.38;;;;;;;;;;1481001;40;20029;-62
2021/06/25 00:36:30;;;;;;;4.95;3.67;;;;;;;;;;1480953;40;20316;-62
2021/06/25 00:37:34;;;;;;;7.13;3.20;;;;;;;;;;1480793;40;20033;-62
2021/06/25 00:38:36;;;;;;;4.90;3.42;;;;;;;;;;1480905;40;20048;-62
2021/06/25 00:39:37;;;;;;;4.18;3.10;;;;;;;;;;1480711;40;20107;-62
2021/06/25 00:40:39;;;;;;;5.53;3.33;;;;;;;;;;1480921;40;20040;-62
2021/06/25 00:41:41;;;;;;;4.07;3.08;;;;;;;;;;1480763;40;20048;-62
2021/06/25 00:42:43;;;;;;;4.93;3.30;;;;;;;;;;1480766;40;20030;-62
2021/06/25 00:43:44;;;;;;;7.30;3.50;;;;;;;;;;1480869;40;20114;-62
2021/06/25 00:44:46;;;;;;;6.32;3.30;;;;;;;;;;1480889;40;20033;-62
2021/06/25 00:45:47;;;;;;;5.72;3.17;;;;;;;;;;1480888;40;20029;-62
2021/06/25 00:46:49;;;;;;;5.32;3.10;;;;;;;;;;1480766;40;20029;-62
2021/06/25 00:47:50;;;;;;;4.72;2.83;;;;;;;;;;1480688;40;20025;-62
2021/06/25 00:48:52;;;;;;;4.03;2.83;;;;;;;;;;1480937;40;20025;-62
2021/06/25 00:49:53;;;;;;;4.25;2.80;;;;;;;;;;1480733;40;20048;-62
2021/06/25 00:50:55;;;;;;;5.22;3.05;;;;;;;;;;1480646;40;20401;-62
2021/06/25 00:51:56;;;;;;;4.25;3.00;;;;;;;;;;1480736;40;20025;-62
2021/06/25 00:52:59;;;;;;;4.63;2.97;;;;;;;;;;1480850;40;20107;-62
2021/06/25 00:54:00;;;;;;;5.45;3.00;;;;;;;;;;1480950;40;20040;-62
2021/06/25 00:55:02;;;;;;;6.25;2.92;;;;;;;;;;1480978;40;20029;-62
2021/06/25 00:56:03;;;;;;;4.75;2.80;;;;;;;;;;1480807;40;20032;-62
2021/06/25 00:57:07;;;;;;;5.22;2.80;;;;;;;;;;1480842;40;20377;-62
2021/06/25 00:58:09;;;;;;;5.78;3.33;;;;;;;;;;1480601;40;20029;-62
2021/06/25 00:59:11;;;;;;;5.30;2.78;;;;;;;;;;1480767;40;20295;-62
2021/06/25 01:00:13;;;;;;;6.07;2.80;;;;;;;;;;1480785;40;20029;-62
2021/06/25 01:01:15;;;;;;;4.45;2.80;;;;;;;;;;1480619;40;20289;-61
2021/06/25 01:02:16;;;;;;;3.72;2.80;;;;;;;;;;1480900;40;20033;-62
2021/06/25 01:03:18;;;;;;;4.85;2.65;;;;;;;;;;1480677;40;20037;-62
2021/06/25 01:04:19;;;;;;;4.80;3.00;;;;;;;;;;1480616;40;20388;-62
2021/06/25 01:05:20;;;;;;;5.82;3.15;;;;;;;;;;1480617;40;20031;-62
2021/06/25 01:06:21;;;;;;;4.28;3.00;;;;;;;;;;1480573;40;20037;-62
2021/06/25 01:07:24;;;;;;;3.75;2.80;;;;;;;;;;1480708;40;20063;-62
2021/06/25 01:08:25;;;;;;;4.25;2.75;;;;;;;;;;1480803;40;20025;-61
2021/06/25 01:09:29;;;;;;;4.22;2.97;;;;;;;;;;1480916;40;20032;-62
2021/06/25 01:10:29;;;;;;;4.80;2.80;;;;;;;;;;1480535;40;20289;-62
2021/06/25 01:11:31;;;;;;;4.28;2.88;;;;;;;;;;1480991;40;20037;-61
2021/06/25 01:12:34;;;;;;;5.28;2.58;;;;;;;;;;1480790;40;20033;-62
2021/06/25 01:13:37;;;;;;;3.63;2.40;;;;;;;;;;1480853;40;20029;-62
2021/06/25 01:14:39;;;;;;;4.63;2.80;;;;;;;;;;1480691;40;20021;-62
2021/06/25 01:15:41;;;;;;;3.75;2.65;;;;;;;;;;1480549;40;20139;-62
2021/06/25 01:16:43;;;;;;;5.05;2.90;;;;;;;;;;1480586;40;20025;-62
2021/06/25 01:17:45;;;;;;;4.07;2.90;;;;;;;;;;1480719;40;20068;-62
2021/06/25 01:18:47;;;;;;;4.93;2.85;;;;;;;;;;1480686;40;20030;-62
2021/06/25 01:19:48;;;;;;;3.83;2.65;;;;;;;;;;1480750;40;20033;-62
2021/06/25 01:20:49;;;;;;;4.95;2.80;;;;;;;;;;1480484;40;20120;-62
2021/06/25 01:21:52;;;;;;;4.30;2.58;;;;;;;;;;1480606;40;20379;-62
2021/06/25 01:22:54;;;;;;;6.57;2.70;;;;;;;;;;1480781;40;20040;-62
2021/06/25 01:23:55;;;;;;;4.78;3.05;;;;;;;;;;1480533;40;20032;-62
2021/06/25 01:24:56;;;;;;;4.82;2.25;;;;;;;;;;1480835;40;20033;-62
2021/06/25 01:25:57;;;;;;;4.30;2.78;;;;;;;;;;1480567;40;20033;-62
2021/06/25 01:26:59;;;;;;;3.97;2.55;;;;;;;;;;1480555;40;20033;-62
2021/06/25 01:28:01;;;;;;;5.35;2.40;;;;;;;;;;1480731;40;20042;-62
2021/06/25 01:29:04;;;;;;;3.33;2.70;;;;;;;;;;1480607;40;20050;-62
2021/06/25 01:30:07;;;;;;;5.97;2.47;;;;;;;;;;1480702;40;20033;-62
2021/06/25 01:31:09;;;;;;;4.63;2.60;;;;;;;;;;1480665;40;20065;-62
2021/06/25 01:32:10;;;;;;;6.28;2.28;;;;;;;;;;1480563;40;20308;-62
2021/06/25 01:33:13;;;;;;;5.57;2.50;;;;;;;;;;1480650;40;20033;-62
2021/06/25 01:34:32;;;;;;;2.78;2.13;;;;;;;;;;1480739;40;20025;-62
2021/06/25 01:35:34;;;;;;;4.07;2.20;;;;;;;;;;1480557;40;20077;-62
2021/06/25 01:36:43;;;;;;;3.78;2.50;;;;;;;;;;1480608;40;20029;-62
2021/06/25 01:37:47;;;;;;;4.70;2.30;;;;;;;;;;1480654;40;20076;-62
2021/06/25 01:38:48;;;;;;;3.90;2.17;;;;;;;;;;1480603;40;20032;-62
2021/06/25 01:39:51;;;;;;;3.13;2.28;;;;;;;;;;1480305;40;20033;-62
2021/06/25 01:40:52;;;;;;;4.57;2.40;;;;;;;;;;1480505;40;20049;-61
2021/06/25 01:41:54;;;;;;;5.03;2.55;;;;;;;;;;1480736;40;20032;-62
2021/06/25 01:42:55;;;;;;;3.15;2.33;;;;;;;;;;1480711;40;20036;-62
2021/06/25 01:43:58;;;;;;;3.05;2.25;;;;;;;;;;1480648;40;20029;-62
2021/06/25 01:45:02;;;;;;;4.63;2.67;;;;;;;;;;1480586;40;20404;-62
2021/06/25 01:46:06;;;;;;;3.20;1.92;;;;;;;;;;1480743;40;20033;-62
2021/06/25 01:47:07;;;;;;;3.25;2.10;;;;;;;;;;1480605;40;20332;-62
2021/06/25 01:48:10;;;;;;;4.53;2.40;;;;;;;;;;1480833;40;20033;-62
2021/06/25 01:49:13;;;;;;;5.32;2.30;;;;;;;;;;1480656;40;20089;-62
2021/06/25 01:50:15;;;;;;;4.70;2.67;;;;;;;;;;1480575;40;20272;-62
2021/06/25 01:51:18;;;;;;;4.82;2.38;;;;;;;;;;1480506;40;20081;-62
2021/06/25 01:52:20;;;;;;;3.78;2.00;;;;;;;;;;1480576;40;20125;-61
2021/06/25 01:53:24;;;;;;;2.80;2.00;;;;;;;;;;1480564;40;20299;-62
2021/06/25 01:54:25;;;;;;;6.43;2.40;;;;;;;;;;1480645;40;20040;-62
2021/06/25 01:55:28;;;;;;;4.85;1.92;;;;;;;;;;1480831;40;20380;-62
2021/06/25 01:56:30;;;;;;;4.78;2.15;;;;;;;;;;1480533;40;20082;-62
2021/06/25 01:57:31;;;;;;;3.03;2.10;;;;;;;;;;1480670;40;20029;-62
2021/06/25 01:58:33;;;;;;;3.65;2.25;;;;;;;;;;1480838;40;20030;-62
2021/06/25 01:59:34;;;;;;;3.75;2.20;;;;;;;;;;1480803;40;20094;-62
2021/06/25 02:00:37;;;;;;;3.22;2.28;;;;;;;;;;1480561;40;20367;-62
2021/06/25 02:01:38;;;;;;;2.55;1.73;;;;;;;;;;1480439;40;20037;-62
2021/06/25 02:02:40;;;;;;;3.53;1.80;;;;;;;;;;1480772;40;20033;-62
2021/06/25 02:03:43;;;;;;;5.93;1.90;;;;;;;;;;1480412;40;20485;-62
2021/06/25 02:04:45;;;;;;;4.28;2.10;;;;;;;;;;1480535;40;20048;-62
2021/06/25 02:05:46;;;;;;;2.58;1.85;;;;;;;;;;1480660;40;20030;-62
2021/06/25 02:06:47;;;;;;;3.58;2.00;;;;;;;;;;1480532;40;20029;-62
2021/06/25 02:07:48;;;;;;;4.40;2.10;;;;;;;;;;1480794;40;20106;-62
2021/06/25 02:08:51;;;;;;;4.50;1.85;;;;;;;;;;1480700;40;20122;-62
2021/06/25 02:09:52;;;;;;;3.00;1.83;;;;;;;;;;1480579;40;20033;-62
2021/06/25 02:10:54;;;;;;;2.40;1.65;;;;;;;;;;1480475;40;20397;-62
2021/06/25 02:11:55;;;;;;;3.35;1.92;;;;;;;;;;1480528;40;20051;-62
2021/06/25 02:12:57;;;;;;;2.95;1.70;;;;;;;;;;1480712;40;20040;-62
2021/06/25 02:13:59;;;;;;;3.90;1.90;;;;;;;;;;1480669;40;20030;-62
2021/06/25 02:15:00;;;;;;;4.13;2.10;;;;;;;;;;1480614;40;20030;-62
2021/06/25 02:16:02;;;;;;;3.88;1.88;;;;;;;;;;1480722;40;20292;-62
2021/06/25 02:17:03;;;;;;;2.67;1.90;;;;;;;;;;1480732;40;20029;-62
2021/06/25 02:18:05;;;;;;;3.20;2.00;;;;;;;;;;1480652;40;20033;-63
2021/06/25 02:19:06;;;;;;;3.67;2.00;;;;;;;;;;1480458;40;20396;-62
2021/06/25 02:20:12;;;;;;;2.75;1.80;;;;;;;;;;1480709;40;20037;-62
2021/06/25 02:21:13;;;;;;;3.90;2.25;;;;;;;;;;1480548;40;20036;-62
2021/06/25 02:22:15;;;;;;;3.95;2.03;;;;;;;;;;1480547;40;20030;-62
2021/06/25 02:23:17;;;;;;;3.30;2.10;;;;;;;;;;1480584;40;20025;-62
2021/06/25 02:24:19;;;;;;;3.78;1.88;;;;;;;;;;1480511;40;20025;-62
2021/06/25 02:25:21;;;;;;;2.83;1.67;;;;;;;;;;1480660;40;20033;-62
2021/06/25 02:26:22;;;;;;;2.30;1.60;;;;;;;;;;1480466;40;20029;-62
2021/06/25 02:27:24;;;;;;;4.00;1.88;;;;;;;;;;1480516;40;20436;-62
2021/06/25 02:28:25;;;;;;;4.60;2.10;;;;;;;;;;1480398;40;20133;-62
2021/06/25 02:29:27;;;;;;;3.15;1.90;;;;;;;;;;1480402;40;20119;-62
2021/06/25 02:30:28;;;;;;;4.85;1.90;;;;;;;;;;1480417;40;20407;-62
2021/06/25 02:31:30;;;;;;;4.10;2.00;;;;;;;;;;1480759;40;20096;-62
2021/06/25 02:32:31;;;;;;;3.13;1.92;;;;;;;;;;1480571;40;20036;-63
2021/06/25 02:33:33;;;;;;;4.38;1.88;;;;;;;;;;1480655;40;20416;-62
2021/06/25 02:34:34;;;;;;;3.03;1.80;;;;;;;;;;1480374;40;20431;-62
2021/06/25 02:35:35;;;;;;;3.20;1.90;;;;;;;;;;1480453;40;20040;-62
2021/06/25 02:36:36;;;;;;;2.40;1.70;;;;;;;;;;1480500;40;20032;-62
2021/06/25 02:37:39;;;;;;;2.55;1.60;;;;;;;;;;1480458;40;20025;-62
2021/06/25 02:38:39;;;;;;;3.83;1.70;;;;;;;;;;1480531;40;20034;-62
2021/06/25 02:39:43;;;;;;;3.50;1.80;;;;;;;;;;1480507;40;20029;-62
2021/06/25 02:40:44;;;;;;;4.10;2.00;;;;;;;;;;1480428;40;20036;-62
2021/06/25 02:41:46;;;;;;;4.25;1.80;;;;;;;;;;1480431;40;20026;-62
2021/06/25 02:42:47;;;;;;;3.05;1.80;;;;;;;;;;1480487;40;20353;-62
2021/06/25 02:43:49;;;;;;;2.60;1.80;;;;;;;;;;1480417;40;20285;-61
2021/06/25 02:44:50;;;;;;;3.33;1.80;;;;;;;;;;1480553;40;20041;-62
2021/06/25 02:45:52;;;;;;;2.83;1.80;;;;;;;;;;1480141;40;20117;-62
2021/06/25 02:46:53;;;;;;;4.07;1.90;;;;;;;;;;1480089;40;20029;-62
2021/06/25 02:47:55;;;;;;;2.90;1.83;;;;;;;;;;1480714;40;20300;-62
2021/06/25 02:48:56;;;;;;;2.83;2.00;;;;;;;;;;1480585;40;20025;-62
2021/06/25 02:49:58;;;;;;;2.90;1.80;;;;;;;;;;1480450;40;20473;-61
2021/06/25 02:50:58;;;;;;;3.05;1.60;;;;;;;;;;1480207;40;20033;-62
2021/06/25 02:52:00;;;;;;;2.80;1.70;;;;;;;;;;1480183;40;20052;-62
2021/06/25 02:53:01;;;;;;;4.00;1.88;;;;;;;;;;1480311;40;20025;-62
2021/06/25 02:54:03;;;;;;;3.17;1.83;;;;;;;;;;1480498;40;20040;-63
2021/06/25 02:55:07;;;;;;;3.65;2.15;;;;;;;;;;1480305;40;20119;-62
2021/06/25 02:56:09;;;;;;;2.35;1.77;;;;;;;;;;1480330;40;20025;-62
2021/06/25 02:57:10;;;;;;;3.78;1.80;;;;;;;;;;1480481;40;20140;-62
2021/06/25 02:58:12;;;;;;;4.22;1.80;;;;;;;;;;1480550;40;20033;-63
2021/06/25 02:59:13;;;;;;;3.20;1.80;;;;;;;;;;1480324;40;20033;-61
2021/06/25 03:00:17;;;;;;;3.33;1.85;;;;;;;;;;1480422;40;20111;-62
2021/06/25 03:01:18;;;;;;;3.53;1.85;;;;;;;;;;1480545;40;20033;-62
2021/06/25 03:02:20;;;;;;;3.97;1.90;;;;;;;;;;1480327;40;20302;-62
2021/06/25 03:03:21;;;;;;;2.42;1.45;;;;;;;;;;1480388;40;20290;-62
2021/06/25 03:04:23;;;;;;;3.08;2.03;;;;;;;;;;1480359;40;20040;-62
2021/06/25 03:05:24;;;;;;;3.72;1.73;;;;;;;;;;1480479;40;20029;-62
2021/06/25 03:06:25;;;;;;;4.25;1.85;;;;;;;;;;1480513;40;20033;-62
2021/06/25 03:07:26;;;;;;;2.63;1.60;;;;;;;;;;1480676;40;20033;-62
2021/06/25 03:08:28;;;;;;;2.50;1.60;;;;;;;;;;1480590;40;20036;-62
2021/06/25 03:09:29;;;;;;;2.95;1.90;;;;;;;;;;1480532;40;20033;-62
2021/06/25 03:10:32;;;;;;;3.38;1.50;;;;;;;;;;1480393;40;20032;-62
2021/06/25 03:11:33;;;;;;;3.00;1.70;;;;;;;;;;1480437;40;20037;-62
2021/06/25 03:12:35;;;;;;;3.28;1.73;;;;;;;;;;1480476;40;20037;-62
2021/06/25 03:13:36;;;;;;;2.97;1.60;;;;;;;;;;1480335;40;20052;-62
2021/06/25 03:14:39;;;;;;;2.70;1.70;;;;;;;;;;1480569;40;20032;-62
2021/06/25 03:15:40;;;;;;;3.22;1.70;;;;;;;;;;1480280;40;20126;-62
2021/06/25 03:16:41;;;;;;;3.22;1.80;;;;;;;;;;1480619;40;20037;-62
2021/06/25 03:17:42;;;;;;;2.85;1.80;;;;;;;;;;1480307;40;20072;-62
2021/06/25 03:18:44;;;;;;;2.67;1.73;;;;;;;;;;1480429;40;20037;-62
2021/06/25 03:19:45;;;;;;;2.50;1.70;;;;;;;;;;1480364;40;20305;-62
2021/06/25 03:20:48;;;;;;;3.78;1.48;;;;;;;;;;1479868;40;20041;-62
2021/06/25 03:21:49;;;;;;;2.60;1.65;;;;;;;;;;1479729;40;20077;-62
2021/06/25 03:22:51;;;;;;;3.25;1.77;;;;;;;;;;1480587;40;20029;-62
2021/06/25 03:23:52;;;;;;;2.90;1.77;;;;;;;;;;1480238;40;20021;-62
2021/06/25 03:24:54;;;;;;;2.70;1.58;;;;;;;;;;1480343;40;20103;-62
2021/06/25 03:25:56;;;;;;;2.20;1.58;;;;;;;;;;1480559;40;20029;-62
2021/06/25 03:26:58;;;;;;;2.88;1.63;;;;;;;;;;1480362;40;20312;-62
2021/06/25 03:27:58;;;;;;;3.55;1.92;;;;;;;;;;1480308;40;20029;-62
2021/06/25 03:29:00;;;;;;;2.90;1.55;;;;;;;;;;1480434;40;20037;-62
2021/06/25 03:30:03;;;;;;;2.40;1.60;;;;;;;;;;1480225;40;20427;-62
2021/06/25 03:31:05;;;;;;;3.25;1.60;;;;;;;;;;1480356;40;20057;-62
2021/06/25 03:32:08;;;;;;;2.80;1.80;;;;;;;;;;1480221;40;20044;-62
2021/06/25 03:33:09;;;;;;;3.63;1.60;;;;;;;;;;1480293;40;20083;-62
2021/06/25 03:34:10;;;;;;;2.80;1.50;;;;;;;;;;1480430;40;20118;-62
2021/06/25 03:35:12;;;;;;;3.00;1.88;;;;;;;;;;1480427;40;20114;-62
2021/06/25 03:36:14;;;;;;;2.42;1.77;;;;;;;;;;1480378;40;20037;-62
2021/06/25 03:37:15;;;;;;;2.90;1.90;;;;;;;;;;1480288;40;20029;-62
2021/06/25 03:38:17;;;;;;;3.40;1.88;;;;;;;;;;1480696;40;20036;-62
2021/06/25 03:39:18;;;;;;;2.95;1.70;;;;;;;;;;1480221;40;20111;-61
2021/06/25 03:40:20;;;;;;;3.15;1.77;;;;;;;;;;1480363;40;20037;-62
2021/06/25 03:41:23;;;;;;;3.75;1.80;;;;;;;;;;1480325;40;20108;-62
2021/06/25 03:42:24;;;;;;;2.35;1.80;;;;;;;;;;1480420;40;20033;-62
2021/06/25 03:43:25;;;;;;;7.60;1.88;;;;;;;;;;1480325;40;20026;-62
2021/06/25 03:44:27;;;;;;;2.40;1.70;;;;;;;;;;1480274;40;20036;-62
2021/06/25 03:45:28;;;;;;;3.53;1.80;;;;;;;;;;1480491;40;20032;-62
2021/06/25 03:46:30;;;;;;;4.80;1.90;;;;;;;;;;1480358;40;20029;-63
2021/06/25 03:47:31;;;;;;;2.72;1.70;;;;;;;;;;1480309;40;20041;-62
2021/06/25 03:48:33;;;;;;;4.43;1.80;;;;;;;;;;1480552;40;20041;-62
2021/06/25 03:49:34;;;;;;;2.47;1.60;;;;;;;;;;1480478;40;20029;-62
2021/06/25 03:50:36;;;;;;;3.08;1.70;;;;;;;;;;1480224;40;20033;-62
2021/06/25 03:51:37;;;;;;;4.53;2.00;;;;;;;;;;1480409;40;20029;-62
2021/06/25 03:52:39;;;;;;;3.83;1.70;;;;;;;;;;1480218;40;20025;-62
2021/06/25 03:53:41;;;;;;;3.22;1.70;;;;;;;;;;1480331;40;20036;-62
2021/06/25 03:54:43;;;;;;;2.85;1.73;;;;;;;;;;1480332;40;20028;-62
2021/06/25 03:57:02;;;;;;;3.58;1.95;;;;;;;;;;1480103;40;20036;-62
2021/06/25 03:58:03;;;;;;;3.33;1.90;;;;;;;;;;1480101;40;20378;-62
2021/06/25 03:59:04;;;;;;;4.18;1.98;;;;;;;;;;1480149;40;20029;-62
2021/06/25 04:00:08;;;;;;;2.95;1.58;;;;;;;;;;1480319;40;20033;-62
2021/06/25 04:01:10;;;;;;;3.10;1.90;;;;;;;;;;1480274;40;20388;-62
2021/06/25 04:02:11;;;;;;;3.13;1.73;;;;;;;;;;1480260;40;20033;-62
2021/06/25 04:03:13;;;;;;;2.83;2.05;;;;;;;;;;1480842;40;20026;-62
2021/06/25 04:04:14;;;;;;;3.10;1.88;;;;;;;;;;1481098;40;20075;-62
2021/06/25 04:05:16;;;;;;;3.38;1.85;;;;;;;;;;1480744;40;20033;-62
2021/06/25 04:06:17;;;;;;;4.25;1.92;;;;;;;;;;1480732;40;20281;-62
2021/06/25 04:07:19;;;;;;;2.83;1.75;;;;;;;;;;1480897;40;20107;-62
2021/06/25 04:08:19;;;;;;;3.03;1.80;;;;;;;;;;1480854;40;20029;-62
2021/06/25 04:09:21;;;;;;;3.25;1.90;;;;;;;;;;1481026;40;20036;-61
2021/06/25 04:10:22;;;;;;;2.83;2.00;;;;;;;;;;1480772;40;20033;-62
2021/06/25 04:11:24;;;;;;;2.70;2.00;;;;;;;;;;1480839;40;20036;-62
2021/06/25 04:12:26;;;;;;;4.03;2.15;;;;;;;;;;1480758;40;20037;-62
2021/06/25 04:13:29;;;;;;;5.18;1.90;;;;;;;;;;1480978;40;20029;-62
2021/06/25 04:14:30;;;;;;;3.65;2.15;;;;;;;;;;1480817;40;20042;-62
2021/06/25 04:15:32;;;;;;;4.85;2.00;;;;;;;;;;1480810;40;20029;-62
2021/06/25 04:16:33;;;;;;;3.40;1.67;;;;;;;;;;1480748;40;20424;-62
2021/06/25 04:17:35;;;;;;;3.00;1.65;;;;;;;;;;1481013;40;20037;-62
2021/06/25 04:18:36;;;;;;;4.00;1.70;;;;;;;;;;1480747;40;20303;-62
2021/06/25 04:19:37;;;;;;;4.05;2.33;;;;;;;;;;1481020;40;20044;-62
2021/06/25 04:20:38;;;;;;;4.13;1.95;;;;;;;;;;1480706;40;20029;-62
2021/06/25 04:21:40;;;;;;;3.90;1.98;;;;;;;;;;1481011;40;20029;-62
2021/06/25 04:22:41;;;;;;;3.58;2.03;;;;;;;;;;1480796;40;20145;-62
2021/06/25 04:23:43;;;;;;;3.50;1.90;;;;;;;;;;1480757;40;20025;-61
2021/06/25 04:24:44;;;;;;;3.17;2.10;;;;;;;;;;1480947;40;20029;-62
2021/06/25 04:25:46;;;;;;;3.67;2.03;;;;;;;;;;1481003;40;20269;-62
2021/06/25 04:26:47;;;;;;;3.28;2.10;;;;;;;;;;1480683;40;20025;-62
2021/06/25 04:27:50;;;;;;;3.50;2.10;;;;;;;;;;1480762;40;20033;-62
2021/06/25 04:28:51;;;;;;;3.50;2.22;;;;;;;;;;1480744;40;20396;-62
2021/06/25 04:29:53;;;;;;;5.38;2.53;;;;;;;;;;1480903;40;20032;-62
2021/06/25 04:30:54;;;;;;;4.15;2.10;;;;;;;;;;1480857;40;20052;-62
2021/06/25 04:31:56;;;;;;;3.75;2.08;;;;;;;;;;1480798;40;20278;-62
2021/06/25 04:32:58;;;;;;;3.90;2.00;;;;;;;;;;1480877;40;20029;-62
2021/06/25 04:34:00;;;;;;;3.33;2.22;;;;;;;;;;1480711;40;20482;-62
2021/06/25 04:35:02;;;;;;;3.92;2.08;;;;;;;;;;1480894;40;20033;-62
2021/06/25 04:36:04;;;;;;;4.15;2.05;;;;;;;;;;1480865;40;20029;-62
2021/06/25 04:37:05;;;;;;;3.35;2.10;;;;;;;;;;1480639;40;20036;-62
2021/06/25 04:38:07;;;;;;;3.65;2.20;;;;;;;;;;1480647;40;20029;-62
2021/06/25 04:39:08;;;;;;;3.10;2.10;;;;;;;;;;1480801;40;20025;-62
2021/06/25 04:40:11;;;;;;;3.83;2.15;;;;;;;;;;1480811;40;20300;-61
2021/06/25 04:41:12;;;;;;;2.88;2.17;;;;;;;;;;1480636;40;20455;-63
2021/06/25 04:42:14;;;;;;;6.78;2.50;;;;;;;;;;1480787;40;20161;-62
2021/06/25 04:43:17;;;;;;;4.95;2.40;;;;;;;;;;1480880;40;20110;-62
2021/06/25 04:44:19;;;;;;;3.58;2.22;;;;;;;;;;1480823;40;20033;-62
2021/06/25 04:45:20;;;;;;;2.92;2.08;;;;;;;;;;1480829;40;20110;-62
2021/06/25 04:46:22;;;;;;;3.05;2.00;;;;;;;;;;1480807;40;20381;-62
2021/06/25 04:47:23;;;;;;;3.67;1.95;;;;;;;;;;1480717;40;20408;-61
2021/06/25 04:48:26;;;;;;;3.30;2.05;;;;;;;;;;1480853;40;20065;-61
2021/06/25 04:49:27;;;;;;;4.05;2.40;;;;;;;;;;1480826;40;20036;-61
2021/06/25 04:50:28;;;;;;;4.10;2.28;;;;;;;;;;1480798;40;20045;-62
2021/06/25 04:51:30;;;;;;;3.22;1.88;;;;;;;;;;1480697;40;20419;-62
2021/06/25 04:52:31;;;;;;;3.75;2.15;;;;;;;;;;1480629;40;20507;-61
2021/06/25 04:53:33;;;;;;;3.50;2.22;;;;;;;;;;1480844;40;20040;-62
2021/06/25 04:54:34;;;;;;;3.25;2.05;;;;;;;;;;1480656;40;20032;-61
2021/06/25 04:55:41;;;;;;;4.38;2.17;;;;;;;;;;1480779;40;20041;-61
2021/06/25 04:56:42;;;;;;;3.70;1.90;;;;;;;;;;1480635;40;20436;-61
2021/06/25 04:57:51;;;;;;;4.13;2.45;;;;;;;;;;1480781;40;20025;-61
2021/06/25 04:58:53;;;;;;;4.95;2.47;;;;;;;;;;1480598;40;20044;-61
2021/06/25 04:59:55;;;;;;;3.58;2.00;;;;;;;;;;1480666;40;20029;-61
2021/06/25 05:00:58;;;;;;;3.85;2.30;;;;;;;;;;1480806;40;20040;-62
2021/06/25 05:02:00;;;;;;;3.65;2.08;;;;;;;;;;1480654;40;20471;-61
2021/06/25 05:03:01;;;;;;;4.90;2.50;;;;;;;;;;1480828;40;20029;-61
2021/06/25 05:04:03;;;;;;;3.75;2.30;;;;;;;;;;1480868;40;20040;-62
2021/06/25 05:05:05;;;;;;;3.53;2.50;;;;;;;;;;1480579;40;20028;-62
2021/06/25 05:06:07;;;;;;;4.85;2.47;;;;;;;;;;1480949;40;20029;-62
2021/06/25 05:07:07;;;;;;;3.92;2.50;;;;;;;;;;1480692;40;20278;-62
2021/06/25 05:08:10;;;;;;;5.50;2.53;;;;;;;;;;1480714;40;20036;-61
2021/06/25 05:09:11;;;;;;;4.47;2.65;;;;;;;;;;1480618;40;20068;-61
2021/06/25 05:10:13;;;;;;;5.60;2.55;;;;;;;;;;1480609;40;20040;-61
2021/06/25 05:11:14;;;;;;;4.05;2.28;;;;;;;;;;1480684;40;20033;-61
2021/06/25 05:12:16;;;;;;;4.88;2.30;;;;;;;;;;1480636;40;20025;-62
2021/06/25 05:13:17;;;;;;;4.35;2.40;;;;;;;;;;1480624;40;20047;-61
2021/06/25 05:14:20;;;;;;;4.10;2.45;;;;;;;;;;1480527;40;20061;-62
2021/06/25 05:15:22;;;;;;;4.18;2.40;;;;;;;;;;1480692;40;20026;-62
2021/06/25 05:16:24;;;;;;;3.97;2.40;;;;;;;;;;1480577;40;20061;-62
2021/06/25 05:17:25;;;;;;;3.47;2.40;;;;;;;;;;1480739;40;20392;-62
2021/06/25 05:18:27;;;;;;;5.50;2.53;;;;;;;;;;1480931;40;20029;-62
2021/06/25 05:19:28;;;;;;;3.65;2.38;;;;;;;;;;1480866;40;20033;-62
2021/06/25 05:20:30;;;;;;;4.40;2.50;;;;;;;;;;1480531;40;20305;-62
2021/06/25 05:21:31;;;;;;;4.60;2.60;;;;;;;;;;1480769;40;20034;-62
2021/06/25 05:22:33;;;;;;;4.05;2.60;;;;;;;;;;1480754;40;20037;-62
2021/06/25 05:23:34;;;;;;;4.72;2.60;;;;;;;;;;1480851;40;20033;-62
2021/06/25 05:24:36;;;;;;;3.35;2.13;;;;;;;;;;1480542;40;20036;-62
2021/06/25 05:25:37;;;;;;;3.78;2.65;;;;;;;;;;1480591;40;20477;-61
2021/06/25 05:26:39;;;;;;;4.82;2.55;;;;;;;;;;1480847;40;20033;-62
2021/06/25 05:27:40;;;;;;;3.10;2.33;;;;;;;;;;1480638;40;20025;-63
2021/06/25 05:28:43;;;;;;;4.03;2.55;;;;;;;;;;1480755;40;20036;-63
2021/06/25 05:29:45;;;;;;;4.47;2.50;;;;;;;;;;1480512;40;20407;-62
2021/06/25 05:30:47;;;;;;;4.78;2.60;;;;;;;;;;1480607;40;20079;-63
2021/06/25 05:31:48;;;;;;;4.57;2.58;;;;;;;;;;1480614;40;20130;-62
2021/06/25 05:32:49;;;;;;;5.60;2.60;;;;;;;;;;1480621;40;20025;-62
2021/06/25 05:33:50;;;;;;;5.60;2.50;;;;;;;;;;1480539;40;20315;-62
2021/06/25 05:34:52;;;;;;;6.18;2.65;;;;;;;;;;1480870;40;20026;-62
2021/06/25 05:35:53;;;;;;;4.63;2.45;;;;;;;;;;1480718;40;20029;-62
2021/06/25 05:36:55;;;;;;;5.82;2.67;;;;;;;;;;1480502;40;20036;-62
2021/06/25 05:37:56;;;;;;;4.47;2.72;;;;;;;;;;1480469;40;20025;-62
2021/06/25 05:38:58;;;;;;;5.10;2.60;;;;;;;;;;1480552;40;20029;-62
2021/06/25 05:39:59;;;;;;;4.50;2.88;;;;;;;;;;1480807;40;20037;-62
2021/06/25 05:41:00;;;;;;;4.75;2.72;;;;;;;;;;1480772;40;20033;-62
2021/06/25 05:42:01;;;;;;;4.57;2.80;;;;;;;;;;1480691;40;20034;-62
2021/06/25 05:43:04;;;;;;;3.90;2.60;;;;;;;;;;1480680;40;20025;-62
2021/06/25 05:44:05;;;;;;;5.55;2.63;;;;;;;;;;1480727;40;20110;-62
2021/06/25 05:45:10;;;;;;;5.55;2.80;;;;;;;;;;1480746;40;20115;-63
2021/06/25 05:46:11;;;;;;;3.90;2.35;;;;;;;;;;1480526;40;20031;-62
2021/06/25 05:47:13;;;;;;;4.22;2.58;;;;;;;;;;1480576;40;20033;-62
2021/06/25 05:48:14;;;;;;;5.28;2.97;;;;;;;;;;1480790;40;20029;-62
2021/06/25 05:49:16;;;;;;;5.10;2.90;;;;;;;;;;1480774;40;20289;-62
2021/06/25 05:50:19;;;;;;;5.63;2.60;;;;;;;;;;1480561;40;20036;-62
2021/06/25 05:51:21;;;;;;;5.13;2.67;;;;;;;;;;1480546;40;20312;-62
2021/06/25 05:52:22;;;;;;;5.82;2.88;;;;;;;;;;1480480;40;20029;-62
2021/06/25 05:53:25;;;;;;;4.10;2.80;;;;;;;;;;1480616;40;20026;-62
2021/06/25 05:54:26;;;;;;;4.20;2.45;;;;;;;;;;1480498;40;20355;-62
2021/06/25 05:55:28;;;;;;;3.70;2.47;;;;;;;;;;1480722;40;20085;-62
2021/06/25 05:56:28;;;;;;;5.15;2.90;;;;;;;;;;1480550;40;20033;-62
2021/06/25 05:57:30;;;;;;;5.03;2.35;;;;;;;;;;1480532;40;20029;-62
2021/06/25 05:58:31;;;;;;;3.90;2.50;;;;;;;;;;1480446;40;20305;-62
2021/06/25 05:59:34;;;;;;;4.47;2.50;;;;;;;;;;1480745;40;20029;-62
2021/06/25 06:00:37;;;;;;;5.43;3.00;;;;;;;;;;1480428;40;20379;-62
2021/06/25 06:01:39;;;;;;;5.45;2.70;;;;;;;;;;1480547;40;20143;-62
2021/06/25 06:02:40;;;;;;;4.75;2.67;;;;;;;;;;1480632;40;20033;-62
2021/06/25 06:03:41;;;;;;;6.65;3.35;;;;;;;;;;1480592;40;20296;-62
2021/06/25 06:04:42;;;;;;;4.75;3.15;;;;;;;;;;1480526;40;20102;-62
2021/06/25 06:05:44;;;;;;;4.88;2.70;;;;;;;;;;1480696;40;20474;-62
2021/06/25 06:06:45;;;;;;;5.78;2.78;;;;;;;;;;1480482;40;20122;-62
2021/06/25 06:07:47;;;;;;;5.53;2.80;;;;;;;;;;1480592;40;20106;-62
2021/06/25 06:08:48;;;;;;;5.35;3.17;;;;;;;;;;1480438;40;20389;-62
2021/06/25 06:09:51;;;;;;;5.30;2.78;;;;;;;;;;1480606;40;20065;-62
2021/06/25 06:10:52;;;;;;;5.00;2.67;;;;;;;;;;1480365;40;20099;-62
2021/06/25 06:11:54;;;;;;;4.75;3.00;;;;;;;;;;1480554;40;20111;-62